sensor_id;sensor_type;location;lat;lon;timestamp;temperature;humidity
49901;DHT22;35789;48.414;12.768;2023-04-01T00:00:00;7.2;99.9
49901;DHT22;35789;48.414;12.768;2023-04-01T00:05:00;7.1;99.9
49901;DHT22;35789;48.414;12.768;2023-04-01T00:10:00;7.2;99.9
49901;DHT22;35789;48.414;12.768;2023-04-01T00:15:00;7.1;99.9
49901;DHT22;35789;48.414;12.768;2023-04-01T00:20:00;7.0;99.9
49901;DHT22;35789;48.414;12.768;2023-04-01T00:25:00;7.0;99.9
49901;DHT22;35789;48.414;12.768;2023-04-01T00:30:00;7.0;99.9
49901;DHT22;35789;48.414;12.768;2023-04-01T00:35:00;7.1;99.9
49901;DHT22;35789;48.414;12.768;2023-04-01T00:40:00;7.1;99.9
49901;DHT22;35789;48.414;12.768;2023-04-01T00:50:00;7.1;99.9
49901;DHT22;35789;48.414;12.768;2023-04-01T00:55:00;7.1;99.9
49901;DHT22;35789;48.414;12.768;2023-04-01T01:00:00;7.1;99.9
49901;DHT22;35789;48.414;12.768;2023-04-01T01:05:00;7.1;99.9
49901;DHT22;35789;48.414;12.768;2023-04-01T01:10:02;7.3;99.9
49901;DHT22;35789;48.414;12.768;2023-04-01T01:15:02;7.2;99.9
49901;DHT22;35789;48.414;12.768;2023-04-01T01:20:06;7.2;99.9
49901;DHT22;35789;48.414;12.768;2023-04-01T01:30:09;7.2;99.9
49901;DHT22;35789;48.414;12.768;2023-04-01T01:35:08;7.3;99.9
49901;DHT22;35789;48.414;12.768;2023-04-01T01:40:02;7.2;99.9
49901;DHT22;35789;48.414;12.768;2023-04-01T01:45:00;7.1;99.9
49901;DHT22;35789;48.414;12.768;2023-04-01T01:50:00;7.1;99.9
49901;DHT22;35789;48.414;12.768;2023-04-01T01:55:00;7.1;99.9
49901;DHT22;35789;48.414;12.768;2023-04-01T02:00:02;7.2;99.9
49901;DHT22;35789;48.414;12.768;2023-04-01T02:05:00;7.2;99.9
49901;DHT22;35789;48.414;12.768;2023-04-01T02:10:00;7.1;99.9
49901;DHT22;35789;48.414;12.768;2023-04-01T02:15:01;7.1;99.9
49901;DHT22;35789;48.414;12.768;2023-04-01T02:20:01;7.1;99.9
49901;DHT22;35789;48.414;12.768;2023-04-01T02:25:01;7.1;99.9
49901;DHT22;35789;48.414;12.768;2023-04-01T02:30:00;7.1;99.9
49901;DHT22;35789;48.414;12.768;2023-04-01T02:35:00;7.1;99.9
49901;DHT22;35789;48.414;12.768;2023-04-01T02:40:00;7.1;99.9
49901;DHT22;35789;48.414;12.768;2023-04-01T02:45:00;7.1;99.9
49901;DHT22;35789;48.414;12.768;2023-04-01T02:50:00;7.2;99.9
49901;DHT22;35789;48.414;12.768;2023-04-01T02:55:00;7.2;99.9
49901;DHT22;35789;48.414;12.768;2023-04-01T03:00:00;7.2;99.9
49901;DHT22;35789;48.414;12.768;2023-04-01T03:05:00;7.2;99.9
49901;DHT22;35789;48.414;12.768;2023-04-01T03:10:00;7.3;99.9
49901;DHT22;35789;48.414;12.768;2023-04-01T03:15:00;7.3;99.9
49901;DHT22;35789;48.414;12.768;2023-04-01T03:20:00;7.2;99.9
49901;DHT22;35789;48.414;12.768;2023-04-01T03:25:00;7.2;99.9
49901;DHT22;35789;48.414;12.768;2023-04-01T03:30:00;7.2;99.9
49901;DHT22;35789;48.414;12.768;2023-04-01T03:35:00;7.3;99.9
49901;DHT22;35789;48.414;12.768;2023-04-01T03:40:00;7.2;99.9
49901;DHT22;35789;48.414;12.768;2023-04-01T03:45:00;7.2;99.9
49901;DHT22;35789;48.414;12.768;2023-04-01T03:50:00;7.2;99.9
49901;DHT22;35789;48.414;12.768;2023-04-01T03:55:00;7.1;99.9
49901;DHT22;35789;48.414;12.768;2023-04-01T04:00:00;7.1;99.9
49901;DHT22;35789;48.414;12.768;2023-04-01T04:05:00;7.1;99.9
49901;DHT22;35789;48.414;12.768;2023-04-01T04:10:00;7.2;99.9
49901;DHT22;35789;48.414;12.768;2023-04-01T04:15:00;7.2;99.9
49901;DHT22;35789;48.414;12.768;2023-04-01T04:20:00;7.2;99.9
49901;DHT22;35789;48.414;12.768;2023-04-01T04:25:00;7.2;99.9
49901;DHT22;35789;48.414;12.768;2023-04-01T04:30:00;7.2;99.9
49901;DHT22;35789;48.414;12.768;2023-04-01T04:35:00;7.2;99.9
49901;DHT22;35789;48.414;12.768;2023-04-01T04:40:00;7.2;99.9
49901;DHT22;35789;48.414;12.768;2023-04-01T04:45:00;7.2;99.9
49901;DHT22;35789;48.414;12.768;2023-04-01T04:50:00;7.2;99.9
49901;DHT22;35789;48.414;12.768;2023-04-01T04:55:00;7.3;99.9
49901;DHT22;35789;48.414;12.768;2023-04-01T05:00:00;7.3;99.9
49901;DHT22;35789;48.414;12.768;2023-04-01T05:05:00;7.2;99.9
49901;DHT22;35789;48.414;12.768;2023-04-01T05:10:00;7.2;99.9
49901;DHT22;35789;48.414;12.768;2023-04-01T05:15:00;7.2;99.9
49901;DHT22;35789;48.414;12.768;2023-04-01T05:20:00;7.2;99.9
49901;DHT22;35789;48.414;12.768;2023-04-01T05:25:00;7.2;99.9
49901;DHT22;35789;48.414;12.768;2023-04-01T05:30:00;7.2;99.9
49901;DHT22;35789;48.414;12.768;2023-04-01T05:35:00;7.2;99.9
49901;DHT22;35789;48.414;12.768;2023-04-01T05:40:00;7.1;99.9
49901;DHT22;35789;48.414;12.768;2023-04-01T05:45:00;7.1;99.9
49901;DHT22;35789;48.414;12.768;2023-04-01T05:50:00;7.1;99.9
49901;DHT22;35789;48.414;12.768;2023-04-01T05:55:00;7.3;99.9
49901;DHT22;35789;48.414;12.768;2023-04-01T06:00:00;7.3;99.9
49901;DHT22;35789;48.414;12.768;2023-04-01T06:05:02;7.2;99.9
49901;DHT22;35789;48.414;12.768;2023-04-01T06:10:00;7.1;99.9
49901;DHT22;35789;48.414;12.768;2023-04-01T06:15:04;7.1;99.9
49901;DHT22;35789;48.414;12.768;2023-04-01T06:20:02;7.1;99.9
49901;DHT22;35789;48.414;12.768;2023-04-01T06:25:04;7.2;99.9
49901;DHT22;35789;48.414;12.768;2023-04-01T06:30:03;7.3;99.9
49901;DHT22;35789;48.414;12.768;2023-04-01T06:35:05;7.5;99.9
49901;DHT22;35789;48.414;12.768;2023-04-01T06:40:06;7.6;99.9
49901;DHT22;35789;48.414;12.768;2023-04-01T06:45:03;7.7;99.9
49901;DHT22;35789;48.414;12.768;2023-04-01T06:50:01;7.9;99.9
49901;DHT22;35789;48.414;12.768;2023-04-01T06:55:01;7.9;99.9
49901;DHT22;35789;48.414;12.768;2023-04-01T07:00:01;7.9;99.9
49901;DHT22;35789;48.414;12.768;2023-04-01T07:05:00;8.1;99.9
49901;DHT22;35789;48.414;12.768;2023-04-01T07:10:02;8.3;99.9
49901;DHT22;35789;48.414;12.768;2023-04-01T07:15:01;8.3;99.9
49901;DHT22;35789;48.414;12.768;2023-04-01T07:20:02;8.4;99.9
49901;DHT22;35789;48.414;12.768;2023-04-01T07:25:02;8.5;99.9
49901;DHT22;35789;48.414;12.768;2023-04-01T07:30:01;8.6;99.9
49901;DHT22;35789;48.414;12.768;2023-04-01T07:35:04;8.7;99.9
49901;DHT22;35789;48.414;12.768;2023-04-01T07:40:04;8.8;99.9
49901;DHT22;35789;48.414;12.768;2023-04-01T07:45:02;8.9;99.9
49901;DHT22;35789;48.414;12.768;2023-04-01T07:50:02;8.9;99.9
49901;DHT22;35789;48.414;12.768;2023-04-01T07:55:01;8.9;99.9
49901;DHT22;35789;48.414;12.768;2023-04-01T08:00:02;9.0;99.9
49901;DHT22;35789;48.414;12.768;2023-04-01T08:05:03;9.1;99.9
49901;DHT22;35789;48.414;12.768;2023-04-01T08:10:02;9.2;99.9
49901;DHT22;35789;48.414;12.768;2023-04-01T08:15:03;9.2;99.9
49901;DHT22;35789;48.414;12.768;2023-04-01T08:20:05;9.3;99.9
49901;DHT22;35789;48.414;12.768;2023-04-01T08:25:01;9.5;99.9
49901;DHT22;35789;48.414;12.768;2023-04-01T08:30:04;9.6;99.9
49901;DHT22;35789;48.414;12.768;2023-04-01T08:35:03;9.6;99.9
49901;DHT22;35789;48.414;12.768;2023-04-01T08:40:01;9.6;99.9
49901;DHT22;35789;48.414;12.768;2023-04-01T08:45:06;9.6;99.9
49901;DHT22;35789;48.414;12.768;2023-04-01T08:50:05;9.6;99.9
49901;DHT22;35789;48.414;12.768;2023-04-01T08:55:02;9.6;99.9
49901;DHT22;35789;48.414;12.768;2023-04-01T09:00:03;9.8;99.9
49901;DHT22;35789;48.414;12.768;2023-04-01T09:05:08;9.7;99.9
49901;DHT22;35789;48.414;12.768;2023-04-01T09:10:06;9.8;99.9
49901;DHT22;35789;48.414;12.768;2023-04-01T09:15:04;10.0;99.9
49901;DHT22;35789;48.414;12.768;2023-04-01T09:20:04;10.1;99.9
49901;DHT22;35789;48.414;12.768;2023-04-01T09:25:06;10.2;99.9
49901;DHT22;35789;48.414;12.768;2023-04-01T09:30:06;10.4;99.9
49901;DHT22;35789;48.414;12.768;2023-04-01T09:35:02;10.4;99.9
49901;DHT22;35789;48.414;12.768;2023-04-01T09:40:08;10.4;99.9
49901;DHT22;35789;48.414;12.768;2023-04-01T09:45:01;10.5;99.9
49901;DHT22;35789;48.414;12.768;2023-04-01T09:50:06;10.6;99.6
49901;DHT22;35789;48.414;12.768;2023-04-01T09:55:05;10.6;99.9
49901;DHT22;35789;48.414;12.768;2023-04-01T10:00:10;10.6;99.7
49901;DHT22;35789;48.414;12.768;2023-04-01T10:10:09;10.7;99.9
49901;DHT22;35789;48.414;12.768;2023-04-01T10:20:03;10.7;99.6
49901;DHT22;35789;48.414;12.768;2023-04-01T10:35:05;11.1;98.1
49901;DHT22;35789;48.414;12.768;2023-04-01T10:50:08;10.5;99.9
49901;DHT22;35789;48.414;12.768;2023-04-01T10:55:06;10.5;99.9
49901;DHT22;35789;48.414;12.768;2023-04-01T11:00:08;10.6;99.9
49901;DHT22;35789;48.414;12.768;2023-04-01T11:15:08;10.4;99.9
49901;DHT22;35789;48.414;12.768;2023-04-01T11:30:11;10.0;99.9
49901;DHT22;35789;48.414;12.768;2023-04-01T11:35:03;9.9;99.9
49901;DHT22;35789;48.414;12.768;2023-04-01T11:40:03;9.9;99.9
49901;DHT22;35789;48.414;12.768;2023-04-01T11:45:06;10.0;99.9
49901;DHT22;35789;48.414;12.768;2023-04-01T11:50:03;10.1;99.9
49901;DHT22;35789;48.414;12.768;2023-04-01T12:00:02;10.2;99.9
49901;DHT22;35789;48.414;12.768;2023-04-01T12:10:02;10.0;99.9
49901;DHT22;35789;48.414;12.768;2023-04-01T12:15:03;9.9;99.9
49901;DHT22;35789;48.414;12.768;2023-04-01T12:20:01;10.0;99.9
49901;DHT22;35789;48.414;12.768;2023-04-01T12:25:03;9.8;99.9
49901;DHT22;35789;48.414;12.768;2023-04-01T12:30:04;9.5;99.9
49901;DHT22;35789;48.414;12.768;2023-04-01T12:40:03;9.4;99.9
49901;DHT22;35789;48.414;12.768;2023-04-01T12:45:02;9.5;99.9
49901;DHT22;35789;48.414;12.768;2023-04-01T12:50:07;9.7;99.9
49901;DHT22;35789;48.414;12.768;2023-04-01T12:55:04;9.8;99.9
49901;DHT22;35789;48.414;12.768;2023-04-01T13:00:09;9.6;99.9
49901;DHT22;35789;48.414;12.768;2023-04-01T13:05:10;9.4;99.9
49901;DHT22;35789;48.414;12.768;2023-04-01T13:10:02;9.5;99.9
49901;DHT22;35789;48.414;12.768;2023-04-01T13:15:05;9.6;99.9
49901;DHT22;35789;48.414;12.768;2023-04-01T13:20:02;9.6;99.9
49901;DHT22;35789;48.414;12.768;2023-04-01T13:25:01;9.5;99.9
49901;DHT22;35789;48.414;12.768;2023-04-01T13:30:02;9.5;99.9
49901;DHT22;35789;48.414;12.768;2023-04-01T13:35:05;9.4;99.9
49901;DHT22;35789;48.414;12.768;2023-04-01T13:40:02;9.5;99.9
49901;DHT22;35789;48.414;12.768;2023-04-01T13:45:00;9.3;99.9
49901;DHT22;35789;48.414;12.768;2023-04-01T13:55:04;9.3;99.9
49901;DHT22;35789;48.414;12.768;2023-04-01T14:00:06;9.3;99.9
49901;DHT22;35789;48.414;12.768;2023-04-01T14:05:07;9.2;99.9
49901;DHT22;35789;48.414;12.768;2023-04-01T14:10:04;9.1;99.9
49901;DHT22;35789;48.414;12.768;2023-04-01T14:20:02;8.8;99.9
49901;DHT22;35789;48.414;12.768;2023-04-01T14:25:10;8.8;99.9
49901;DHT22;35789;48.414;12.768;2023-04-01T14:30:05;8.8;99.9
49901;DHT22;35789;48.414;12.768;2023-04-01T14:35:09;8.7;99.9
49901;DHT22;35789;48.414;12.768;2023-04-01T14:45:08;8.4;99.9
49901;DHT22;35789;48.414;12.768;2023-04-01T14:50:05;8.3;99.9
49901;DHT22;35789;48.414;12.768;2023-04-01T14:55:00;8.2;99.9
49901;DHT22;35789;48.414;12.768;2023-04-01T15:00:02;8.2;99.9
49901;DHT22;35789;48.414;12.768;2023-04-01T15:05:03;8.1;99.9
49901;DHT22;35789;48.414;12.768;2023-04-01T15:10:02;8.1;99.9
49901;DHT22;35789;48.414;12.768;2023-04-01T15:15:03;8.2;99.9
49901;DHT22;35789;48.414;12.768;2023-04-01T15:20:08;8.2;99.9
49901;DHT22;35789;48.414;12.768;2023-04-01T15:25:05;8.3;99.9
49901;DHT22;35789;48.414;12.768;2023-04-01T15:30:04;8.4;99.9
49901;DHT22;35789;48.414;12.768;2023-04-01T15:35:03;8.4;99.9
49901;DHT22;35789;48.414;12.768;2023-04-01T15:40:02;8.4;99.9
49901;DHT22;35789;48.414;12.768;2023-04-01T15:45:04;8.4;99.9
49901;DHT22;35789;48.414;12.768;2023-04-01T15:50:06;8.4;99.9
49901;DHT22;35789;48.414;12.768;2023-04-01T15:55:09;8.4;99.9
49901;DHT22;35789;48.414;12.768;2023-04-01T16:00:06;8.3;99.9
49901;DHT22;35789;48.414;12.768;2023-04-01T16:05:02;8.3;99.9
49901;DHT22;35789;48.414;12.768;2023-04-01T16:10:05;8.3;99.9
49901;DHT22;35789;48.414;12.768;2023-04-01T16:15:04;8.3;99.9
49901;DHT22;35789;48.414;12.768;2023-04-01T16:20:01;8.3;99.9
49901;DHT22;35789;48.414;12.768;2023-04-01T16:25:05;8.2;99.9
49901;DHT22;35789;48.414;12.768;2023-04-01T16:30:01;8.2;99.9
49901;DHT22;35789;48.414;12.768;2023-04-01T16:35:04;8.2;99.9
49901;DHT22;35789;48.414;12.768;2023-04-01T16:40:02;8.1;99.9
49901;DHT22;35789;48.414;12.768;2023-04-01T16:45:02;8.1;99.9
49901;DHT22;35789;48.414;12.768;2023-04-01T16:50:06;8.1;99.9
49901;DHT22;35789;48.414;12.768;2023-04-01T16:55:02;8.1;99.9
49901;DHT22;35789;48.414;12.768;2023-04-01T17:00:02;8.0;99.9
49901;DHT22;35789;48.414;12.768;2023-04-01T17:05:01;8.0;99.9
49901;DHT22;35789;48.414;12.768;2023-04-01T17:10:03;8.1;99.9
49901;DHT22;35789;48.414;12.768;2023-04-01T17:15:02;8.0;99.9
49901;DHT22;35789;48.414;12.768;2023-04-01T17:20:05;8.0;99.9
49901;DHT22;35789;48.414;12.768;2023-04-01T17:25:03;8.0;99.9
49901;DHT22;35789;48.414;12.768;2023-04-01T17:30:10;8.0;99.9
49901;DHT22;35789;48.414;12.768;2023-04-01T17:35:00;7.9;99.9
49901;DHT22;35789;48.414;12.768;2023-04-01T17:40:06;7.9;99.9
49901;DHT22;35789;48.414;12.768;2023-04-01T17:45:01;8.0;99.9
49901;DHT22;35789;48.414;12.768;2023-04-01T17:50:02;7.9;99.9
49901;DHT22;35789;48.414;12.768;2023-04-01T17:55:06;7.9;99.9
49901;DHT22;35789;48.414;12.768;2023-04-01T18:00:02;7.9;99.9
49901;DHT22;35789;48.414;12.768;2023-04-01T18:05:04;7.8;99.9
49901;DHT22;35789;48.414;12.768;2023-04-01T18:10:04;7.8;99.9
49901;DHT22;35789;48.414;12.768;2023-04-01T18:20:04;7.8;99.9
49901;DHT22;35789;48.414;12.768;2023-04-01T18:25:01;7.8;99.9
49901;DHT22;35789;48.414;12.768;2023-04-01T18:30:00;7.7;99.9
49901;DHT22;35789;48.414;12.768;2023-04-01T18:35:02;7.7;99.9
49901;DHT22;35789;48.414;12.768;2023-04-01T18:40:03;7.7;99.9
49901;DHT22;35789;48.414;12.768;2023-04-01T18:45:01;7.6;99.9
49901;DHT22;35789;48.414;12.768;2023-04-01T18:50:02;7.6;99.9
49901;DHT22;35789;48.414;12.768;2023-04-01T19:00:03;7.6;99.9
49901;DHT22;35789;48.414;12.768;2023-04-01T19:05:02;7.5;99.9
49901;DHT22;35789;48.414;12.768;2023-04-01T19:10:01;7.5;99.9
49901;DHT22;35789;48.414;12.768;2023-04-01T19:15:05;7.5;99.9
49901;DHT22;35789;48.414;12.768;2023-04-01T19:20:03;7.5;99.9
49901;DHT22;35789;48.414;12.768;2023-04-01T19:35:06;7.4;99.9
49901;DHT22;35789;48.414;12.768;2023-04-01T19:40:04;7.5;99.9
49901;DHT22;35789;48.414;12.768;2023-04-01T19:45:04;7.4;99.9
49901;DHT22;35789;48.414;12.768;2023-04-01T19:50:01;7.4;99.9
49901;DHT22;35789;48.414;12.768;2023-04-01T19:55:02;7.4;99.9
49901;DHT22;35789;48.414;12.768;2023-04-01T20:00:02;7.4;99.9
49901;DHT22;35789;48.414;12.768;2023-04-01T20:05:01;7.4;99.9
49901;DHT22;35789;48.414;12.768;2023-04-01T20:10:02;7.4;99.9
49901;DHT22;35789;48.414;12.768;2023-04-01T20:15:00;7.4;99.9
49901;DHT22;35789;48.414;12.768;2023-04-01T20:20:01;7.4;99.9
49901;DHT22;35789;48.414;12.768;2023-04-01T20:25:02;7.4;99.9
49901;DHT22;35789;48.414;12.768;2023-04-01T20:35:07;7.4;99.9
49901;DHT22;35789;48.414;12.768;2023-04-01T20:45:10;7.3;99.9
49901;DHT22;35789;48.414;12.768;2023-04-01T20:50:01;7.3;99.9
49901;DHT22;35789;48.414;12.768;2023-04-01T20:55:08;7.3;99.9
49901;DHT22;35789;48.414;12.768;2023-04-01T21:10:06;7.3;99.9
49901;DHT22;35789;48.414;12.768;2023-04-01T21:20:06;7.2;99.9
49901;DHT22;35789;48.414;12.768;2023-04-01T21:25:09;7.3;99.9
49901;DHT22;35789;48.414;12.768;2023-04-01T21:30:02;7.3;99.9
49901;DHT22;35789;48.414;12.768;2023-04-01T21:35:02;7.3;99.9
49901;DHT22;35789;48.414;12.768;2023-04-01T21:40:03;7.2;99.9
49901;DHT22;35789;48.414;12.768;2023-04-01T21:50:04;7.2;99.9
49901;DHT22;35789;48.414;12.768;2023-04-01T21:55:07;7.2;99.9
49901;DHT22;35789;48.414;12.768;2023-04-01T22:00:06;7.2;99.9
49901;DHT22;35789;48.414;12.768;2023-04-01T22:05:02;7.2;99.9
49901;DHT22;35789;48.414;12.768;2023-04-01T22:10:03;7.1;99.9
49901;DHT22;35789;48.414;12.768;2023-04-01T22:15:02;7.1;99.9
49901;DHT22;35789;48.414;12.768;2023-04-01T22:20:04;7.1;99.9
49901;DHT22;35789;48.414;12.768;2023-04-01T22:25:02;7.1;99.9
49901;DHT22;35789;48.414;12.768;2023-04-01T22:30:04;7.1;99.9
49901;DHT22;35789;48.414;12.768;2023-04-01T22:35:02;7.0;99.9
49901;DHT22;35789;48.414;12.768;2023-04-01T22:40:06;7.0;99.9
49901;DHT22;35789;48.414;12.768;2023-04-01T22:45:03;7.0;99.9
49901;DHT22;35789;48.414;12.768;2023-04-01T22:50:02;7.0;99.9
49901;DHT22;35789;48.414;12.768;2023-04-01T22:55:03;6.9;99.9
49901;DHT22;35789;48.414;12.768;2023-04-01T23:00:01;6.9;99.9
49901;DHT22;35789;48.414;12.768;2023-04-01T23:05:02;7.0;99.9
49901;DHT22;35789;48.414;12.768;2023-04-01T23:10:01;7.0;99.9
49901;DHT22;35789;48.414;12.768;2023-04-01T23:15:00;7.0;99.9
49901;DHT22;35789;48.414;12.768;2023-04-01T23:20:02;6.9;99.9
49901;DHT22;35789;48.414;12.768;2023-04-01T23:25:03;7.0;99.9
49901;DHT22;35789;48.414;12.768;2023-04-01T23:30:00;7.0;99.9
49901;DHT22;35789;48.414;12.768;2023-04-01T23:35:00;6.9;99.9
49901;DHT22;35789;48.414;12.768;2023-04-01T23:40:00;6.9;99.9
49901;DHT22;35789;48.414;12.768;2023-04-01T23:45:01;6.9;99.9
49901;DHT22;35789;48.414;12.768;2023-04-01T23:50:01;7.0;99.9
49901;DHT22;35789;48.414;12.768;2023-04-01T23:55:02;7.0;99.9
